createdAt,value
2022-12-25T00:01:27.461Z,12.60
2022-12-25T00:06:30.182Z,8.30
2022-12-25T00:11:32.862Z,9.90
2022-12-25T00:16:35.659Z,10.70
2022-12-25T00:21:38.702Z,11.90
2022-12-25T00:26:41.370Z,9.10
2022-12-25T00:31:44.235Z,9.00
2022-12-25T00:36:50.894Z,13.20
2022-12-25T00:42:12.360Z,10.10
2022-12-25T00:47:16.194Z,12.80
2022-12-25T00:52:18.898Z,13.00
2022-12-25T00:57:21.596Z,12.60
2022-12-25T01:02:24.492Z,11.70
2022-12-25T01:07:27.602Z,11.90
2022-12-25T01:12:33.524Z,10.70
2022-12-25T01:17:36.763Z,9.00
2022-12-25T01:22:39.759Z,9.50
2022-12-25T01:27:42.779Z,9.10
2022-12-25T01:32:45.571Z,12.40
2022-12-25T01:37:48.227Z,13.90
2022-12-25T01:42:51.066Z,11.70
2022-12-25T01:47:53.867Z,13.00
2022-12-25T01:52:57.662Z,12.70
2022-12-25T01:58:00.740Z,12.60
2022-12-25T02:03:04.162Z,23.00
2022-12-25T02:08:12.730Z,19.40
2022-12-25T02:13:18.590Z,17.60
2022-12-25T02:18:32.477Z,15.10
2022-12-25T02:24:10.007Z,17.70
2022-12-25T02:29:12.705Z,15.50
2022-12-25T02:34:41.633Z,17.80
2022-12-25T02:39:59.557Z,14.00
2022-12-25T02:45:21.200Z,13.10
2022-12-25T02:50:44.303Z,12.40
2022-12-25T02:56:08.696Z,12.70
2022-12-25T03:01:35.500Z,10.90
2022-12-25T03:06:43.755Z,12.90
2022-12-25T03:11:49.841Z,11.70
2022-12-25T03:16:56.779Z,11.60
2022-12-25T03:22:18.084Z,10.70
2022-12-25T03:27:20.757Z,12.90
2022-12-25T03:32:48.576Z,10.60
2022-12-25T03:38:23.592Z,16.10
2022-12-25T03:44:12.502Z,12.80
2022-12-25T03:49:48.925Z,12.80
2022-12-25T03:55:15.129Z,10.80
2022-12-25T04:00:36.923Z,9.50
2022-12-25T04:05:58.168Z,9.50
2022-12-25T04:11:19.388Z,13.10
2022-12-25T04:16:40.618Z,10.50
2022-12-25T04:22:01.972Z,10.70
2022-12-25T04:27:23.499Z,11.20
2022-12-25T04:32:45.040Z,15.30
2022-12-25T04:37:47.909Z,22.50
2022-12-25T04:42:52.074Z,19.70
2022-12-25T04:47:54.728Z,24.00
2022-12-25T04:52:57.416Z,18.20
2022-12-25T04:58:00.197Z,21.00
2022-12-25T05:03:03.053Z,13.40
2022-12-25T05:08:06.498Z,17.40
2022-12-25T05:13:09.211Z,15.20
2022-12-25T05:18:11.909Z,10.60
2022-12-25T05:23:15.122Z,13.40
2022-12-25T05:28:18.623Z,12.20
2022-12-25T05:33:21.377Z,13.30
2022-12-25T05:38:24.211Z,17.30
2022-12-25T05:43:28.432Z,12.40
2022-12-25T05:48:31.227Z,15.00
2022-12-25T05:53:34.563Z,16.80
2022-12-25T05:58:39.211Z,25.30
2022-12-25T06:03:42.279Z,21.70
2022-12-25T06:08:45.643Z,21.30
2022-12-25T06:13:52.680Z,19.20
2022-12-25T06:18:55.346Z,18.40
2022-12-25T06:24:00.093Z,22.60
2022-12-25T06:29:03.218Z,19.90
2022-12-25T06:34:05.996Z,17.90
2022-12-25T06:39:09.709Z,21.00
2022-12-25T06:44:12.541Z,20.70
2022-12-25T06:49:15.366Z,22.70
2022-12-25T06:54:18.189Z,23.50
2022-12-25T06:59:22.187Z,15.00
2022-12-25T07:04:39.083Z,20.50
2022-12-25T07:09:42.743Z,23.40
2022-12-25T07:14:48.902Z,20.70
2022-12-25T07:19:51.895Z,19.80
2022-12-25T07:24:54.717Z,19.20
2022-12-25T07:29:57.401Z,17.90
2022-12-25T07:35:00.303Z,18.30
2022-12-25T07:40:03.713Z,23.20
2022-12-25T07:45:07.107Z,20.50
2022-12-25T07:50:10.306Z,24.00
2022-12-25T07:55:13.629Z,20.40
2022-12-25T08:00:17.369Z,22.30
2022-12-25T08:05:20.074Z,21.40
2022-12-25T08:10:22.773Z,26.40
2022-12-25T08:15:25.479Z,26.10
2022-12-25T08:20:28.285Z,29.90
2022-12-25T08:25:31.471Z,25.60
2022-12-25T08:30:34.151Z,25.40
2022-12-25T08:35:37.104Z,27.40
2022-12-25T08:40:39.805Z,36.10
2022-12-25T08:45:42.519Z,37.60
2022-12-25T08:50:47.234Z,34.50
2022-12-25T08:55:50.228Z,27.30
2022-12-25T09:00:53.455Z,35.80
2022-12-25T09:05:56.279Z,36.90
2022-12-25T09:11:07.819Z,55.30
2022-12-25T09:16:13.719Z,45.40
2022-12-25T09:21:17.642Z,41.10
2022-12-25T09:26:20.669Z,37.30
2022-12-25T09:31:23.938Z,27.40
2022-12-25T09:36:27.136Z,36.50
2022-12-25T09:42:20.783Z,32.10
2022-12-25T09:47:27.979Z,27.00
2022-12-25T09:52:37.375Z,26.10
2022-12-25T09:57:40.245Z,23.30
2022-12-25T10:02:55.411Z,29.70
2022-12-25T10:08:23.703Z,23.30
2022-12-25T10:13:50.106Z,14.30
2022-12-25T10:19:21.981Z,14.90
2022-12-25T10:24:39.012Z,15.30
2022-12-25T10:29:43.964Z,19.40
2022-12-25T10:34:46.744Z,19.50
2022-12-25T10:39:49.493Z,19.30
2022-12-25T10:44:59.744Z,17.30
2022-12-25T10:50:19.122Z,16.20
2022-12-25T10:55:28.162Z,18.50
2022-12-25T11:00:33.717Z,20.60
2022-12-25T11:05:36.855Z,29.40
2022-12-25T11:10:43.972Z,20.90
2022-12-25T11:16:01.559Z,23.50
2022-12-25T11:21:15.585Z,27.20
2022-12-25T11:26:18.755Z,28.10
2022-12-25T11:31:32.175Z,28.00
2022-12-25T11:36:47.316Z,21.70
2022-12-25T11:41:56.354Z,23.20
2022-12-25T11:47:12.894Z,19.00
2022-12-25T11:52:18.158Z,20.30
2022-12-25T11:57:25.252Z,17.40
2022-12-25T12:02:37.071Z,15.40
2022-12-25T12:07:57.696Z,18.10
2022-12-25T12:13:23.834Z,15.00
2022-12-25T12:18:26.564Z,23.00
2022-12-25T12:23:32.249Z,19.90
2022-12-25T12:28:45.259Z,23.90
2022-12-25T12:33:53.381Z,24.00
2022-12-25T12:38:58.437Z,20.20
2022-12-25T12:44:05.153Z,21.10
2022-12-25T12:49:28.495Z,29.40
2022-12-25T12:54:31.257Z,26.10
2022-12-25T12:59:44.373Z,25.90
2022-12-25T13:05:12.627Z,41.00
2022-12-25T13:10:37.840Z,38.30
2022-12-25T13:15:41.093Z,21.60
2022-12-25T13:21:04.139Z,16.10
2022-12-25T13:26:16.977Z,16.00
2022-12-25T13:31:25.365Z,20.50
2022-12-25T13:36:30.865Z,13.50
2022-12-25T13:42:03.100Z,22.10
2022-12-25T13:47:19.382Z,30.70
2022-12-25T13:52:34.191Z,27.40
2022-12-25T13:57:43.933Z,28.40
2022-12-25T14:02:48.030Z,31.30
2022-12-25T14:07:56.114Z,28.90
2022-12-25T14:13:03.629Z,27.70
2022-12-25T14:18:07.395Z,26.50
2022-12-25T14:23:16.250Z,26.10
2022-12-25T14:28:26.866Z,24.60
2022-12-25T14:33:36.823Z,24.60
2022-12-25T14:38:42.527Z,24.90
2022-12-25T14:43:55.581Z,24.40
2022-12-25T14:49:09.842Z,24.00
2022-12-25T14:54:23.144Z,20.00
2022-12-25T14:59:27.152Z,17.30
2022-12-25T15:04:30.379Z,22.80
2022-12-25T15:09:33.531Z,34.70
2022-12-25T15:14:38.577Z,23.10
2022-12-25T15:19:41.296Z,20.50
2022-12-25T15:24:44.069Z,18.00
2022-12-25T15:35:19.438Z,16.40
2022-12-25T15:40:22.171Z,15.60
2022-12-25T15:45:28.063Z,16.60
2022-12-25T15:50:32.792Z,16.00
2022-12-25T15:55:36.712Z,14.40
2022-12-25T16:00:39.468Z,11.90
2022-12-25T16:05:42.221Z,23.20
2022-12-25T16:10:45.127Z,22.80
2022-12-25T16:15:47.857Z,23.10
2022-12-25T16:20:52.263Z,25.80
2022-12-25T16:25:54.961Z,24.30
2022-12-25T16:30:57.765Z,40.20
2022-12-25T16:36:00.507Z,27.10
2022-12-25T16:41:03.389Z,26.10
2022-12-25T16:46:13.992Z,22.60
2022-12-25T16:51:19.759Z,20.40
2022-12-25T16:56:25.704Z,23.70
2022-12-25T17:01:29.026Z,26.50
2022-12-25T17:06:32.124Z,22.70
2022-12-25T17:11:34.912Z,23.60
2022-12-25T17:16:38.224Z,30.10
2022-12-25T17:21:40.993Z,27.30
2022-12-25T17:26:44.132Z,28.60
2022-12-25T17:31:46.925Z,25.90
2022-12-25T17:36:49.694Z,28.40
2022-12-25T17:41:52.545Z,31.90
2022-12-25T17:46:55.407Z,29.60
2022-12-25T17:51:58.247Z,24.60
2022-12-25T17:57:01.359Z,34.30
2022-12-25T18:02:04.098Z,30.30
2022-12-25T18:07:06.871Z,26.60
2022-12-25T18:12:09.559Z,26.30
2022-12-25T18:17:12.259Z,28.80
2022-12-25T18:22:14.972Z,33.50
2022-12-25T18:27:17.752Z,24.50
2022-12-25T18:32:26.315Z,17.60
2022-12-25T18:37:34.441Z,30.40
2022-12-25T18:42:43.470Z,30.00
2022-12-25T18:47:47.025Z,26.30
2022-12-25T18:52:51.678Z,25.10
2022-12-25T18:57:55.255Z,25.00
2022-12-25T19:02:59.301Z,35.70
2022-12-25T19:08:02.717Z,32.20
2022-12-25T19:13:06.215Z,32.70
2022-12-25T19:18:09.507Z,30.50
2022-12-25T19:23:12.209Z,31.10
2022-12-25T19:28:15.135Z,39.40
2022-12-25T19:33:18.206Z,32.50
2022-12-25T19:38:20.970Z,23.90
2022-12-25T19:43:23.752Z,29.00
2022-12-25T19:48:26.544Z,37.50
2022-12-25T19:53:30.464Z,31.80
2022-12-25T19:58:33.169Z,31.20
2022-12-25T20:03:43.672Z,25.90
2022-12-25T20:08:52.555Z,31.00
2022-12-25T20:13:56.321Z,31.00
2022-12-25T20:18:59.336Z,26.70
2022-12-25T20:24:02.050Z,26.90
2022-12-25T20:29:05.568Z,31.30
2022-12-25T20:34:11.255Z,33.40
2022-12-25T20:39:14.125Z,31.20
2022-12-25T20:44:17.123Z,26.50
2022-12-25T20:49:20.246Z,30.70
2022-12-25T20:54:22.932Z,26.20
2022-12-25T20:59:25.639Z,26.30
2022-12-25T21:04:28.332Z,20.90
2022-12-25T21:09:31.729Z,28.00
2022-12-25T21:14:34.853Z,23.40
2022-12-25T21:19:37.527Z,22.30
2022-12-25T21:24:40.253Z,20.30
2022-12-25T21:29:43.056Z,22.70
2022-12-25T21:34:45.768Z,28.80
2022-12-25T21:39:51.533Z,24.80
2022-12-25T21:44:54.239Z,19.90
2022-12-25T21:50:15.455Z,22.70
2022-12-25T21:55:18.131Z,23.50
2022-12-25T22:00:21.037Z,25.40
2022-12-25T22:05:42.368Z,28.30
2022-12-25T22:10:45.098Z,26.40
2022-12-25T22:16:06.784Z,23.40
2022-12-25T22:21:18.743Z,28.00
2022-12-25T22:26:21.570Z,24.10
2022-12-25T22:31:24.527Z,21.50
2022-12-25T22:36:27.493Z,22.90
2022-12-25T22:41:33.665Z,22.10
2022-12-25T22:46:37.133Z,19.60
2022-12-25T22:51:39.958Z,19.40
2022-12-25T22:56:45.108Z,21.40
2022-12-25T23:01:49.198Z,19.20
2022-12-25T23:06:52.022Z,21.00
2022-12-25T23:11:59.478Z,18.50
2022-12-25T23:17:02.119Z,23.00
2022-12-25T23:22:23.498Z,17.50
2022-12-25T23:27:26.660Z,23.00
2022-12-25T23:32:29.377Z,17.60
2022-12-25T23:37:32.108Z,21.40
2022-12-25T23:42:34.908Z,20.20
2022-12-25T23:47:38.169Z,13.90
2022-12-25T23:52:40.900Z,16.00
2022-12-25T23:57:43.627Z,23.00
